| time (UTC) | temp F | wind direction | speed MPH | gust MPH | rain 1hr in | rain 24hr in | rain mn in | humidity % | barometer mb |
| 20260902165006 | 88 | 246 | 1.0 | 3.0 | 0.00 | 0.00 | 0.00 | 61 | 1014.3 |
| 20260902164504 | 88 | 267 | 1.0 | 4.0 | 0.00 | 0.00 | 0.00 | 62 | 1014.4 |
| 20260902164007 | 88 | 264 | 1.0 | 4.0 | 0.00 | 0.00 | 0.00 | 62 | 1014.5 |
| 20260902163007 | 87 | 255 | 1.0 | 3.0 | 0.00 | 0.00 | 0.00 | 66 | 1014.5 |
| 20260902162505 | 87 | 203 | 1.0 | 3.0 | 0.00 | 0.00 | 0.00 | 63 | 1014.5 |
| 20260902162007 | 87 | 244 | 1.0 | 4.0 | 0.00 | 0.00 | 0.00 | 64 | 1014.5 |
| 20260902161502 | 87 | 207 | 0.0 | 4.0 | 0.00 | 0.00 | 0.00 | 64 | 1014.4 |
| 20260902161007 | 86 | 272 | 1.0 | 4.0 | 0.00 | 0.00 | 0.00 | 65 | 1014.6 |
| 20260902160502 | 86 | 283 | 1.0 | 4.0 | 0.00 | 0.00 | 0.00 | 67 | 1014.5 |
| 20260902160011 | 86 | 237 | 0.0 | 2.0 | 0.00 | 0.00 | 0.00 | 67 | 1014.5 |
| 20260902155505 | 86 | 250 | 1.0 | 4.0 | 0.00 | 0.00 | 0.00 | 67 | 1014.5 |
| 20260902155005 | 85 | 284 | 0.0 | 4.0 | 0.00 | 0.00 | 0.00 | 68 | 1014.7 |
| 20260902154506 | 85 | 286 | 1.0 | 4.0 | 0.00 | 0.00 | 0.00 | 67 | 1014.7 |
| 20260902154008 | 85 | 279 | 1.0 | 6.0 | 0.00 | 0.00 | 0.00 | 68 | 1015.0 |
| 20260902153007 | 85 | 274 | 1.0 | 5.0 | 0.00 | 0.00 | 0.00 | 67 | 1014.8 |
| 20260902152505 | 85 | 236 | 1.0 | 5.0 | 0.00 | 0.00 | 0.00 | 68 | 1014.8 |
| 20260902152005 | 85 | 288 | 1.0 | 6.0 | 0.00 | 0.00 | 0.00 | 69 | 1014.7 |
| 20260902151006 | 84 | 273 | 1.0 | 3.0 | 0.00 | 0.00 | 0.00 | 70 | 1014.7 |
| 20260902150505 | 84 | 279 | 1.0 | 3.0 | 0.00 | 0.00 | 0.00 | 71 | 1014.8 |
| 20260902150008 | 84 | 281 | 1.0 | 4.0 | 0.00 | 0.00 | 0.00 | 71 | 1014.6 |
| 20260902145502 | 83 | 281 | 1.0 | 4.0 | 0.00 | 0.00 | 0.00 | 71 | 1014.7 |
| 20260902145007 | 83 | 279 | 0.0 | 4.0 | 0.00 | 0.00 | 0.00 | 72 | 1014.6 |
| 20260902144504 | 83 | 290 | 0.0 | 4.0 | 0.00 | 0.00 | 0.00 | 72 | 1014.5 |
| 20260902144004 | 82 | 281 | 1.0 | 6.0 | 0.00 | 0.00 | 0.00 | 72 | 1014.5 |
| 20260902143502 | 82 | 281 | 1.0 | 6.0 | 0.00 | 0.00 | 0.00 | 73 | 1014.7 |
| 20260902143004 | 82 | 285 | 0.0 | 6.0 | 0.00 | 0.00 | 0.00 | 74 | 1014.8 |
| 20260902142506 | 82 | 232 | 1.0 | 3.0 | 0.00 | 0.00 | 0.00 | 73 | 1014.6 |
| 20260902142004 | 81 | 286 | 1.0 | 4.0 | 0.00 | 0.00 | 0.00 | 74 | 1014.7 |
| 20260902141505 | 81 | 282 | 0.0 | 4.0 | 0.00 | 0.00 | 0.00 | 75 | 1014.7 |
| 20260902141003 | 81 | 242 | 0.0 | 2.0 | 0.00 | 0.00 | 0.00 | 74 | 1014.7 |
| 20260902140503 | 81 | 284 | 1.0 | 4.0 | 0.00 | 0.00 | 0.00 | 74 | 1014.7 |
| 20260902140007 | 81 | 260 | 0.0 | 4.0 | 0.00 | 0.00 | 0.00 | 74 | 1014.7 |
| 20260902135502 | 81 | 239 | 0.0 | 2.0 | 0.00 | 0.00 | 0.00 | 75 | 1014.6 |
| 20260902135004 | 80 | 261 | 0.0 | 1.0 | 0.00 | 0.00 | 0.00 | 76 | 1014.6 |
| 20260902134503 | 80 | 261 | 0.0 | 0.0 | 0.00 | 0.00 | 0.00 | 76 | 1014.6 |
| 20260902134007 | 79 | 261 | 0.0 | 0.0 | 0.00 | 0.00 | 0.00 | 76 | 1014.6 |
| 20260902132004 | 78 | 258 | 0.0 | 0.0 | 0.00 | 0.00 | 0.00 | 78 | 1014.7 |
| 20260902131504 | 78 | 242 | 0.0 | 0.0 | 0.00 | 0.00 | 0.00 | 78 | 1014.7 |
| 20260902131005 | 78 | 242 | 0.0 | 0.0 | 0.00 | 0.00 | 0.00 | 79 | 1014.9 |
| 20260902130502 | 77 | 242 | 0.0 | 0.0 | 0.00 | 0.00 | 0.00 | 79 | 1014.8 |
| 20260902130005 | 77 | 242 | 0.0 | 0.0 | 0.00 | 0.00 | 0.00 | 79 | 1014.8 |
| 20260902125502 | 77 | 242 | 0.0 | 1.0 | 0.00 | 0.00 | 0.00 | 79 | 1014.8 |
| 20260902125003 | 77 | 238 | 0.0 | 0.0 | 0.00 | 0.00 | 0.00 | 80 | 1014.8 |
| 20260902124503 | 77 | 238 | 0.0 | 0.0 | 0.00 | 0.00 | 0.00 | 80 | 1014.8 |
| 20260902124003 | 76 | 238 | 0.0 | 0.0 | 0.00 | 0.00 | 0.00 | 81 | 1014.7 |
| 20260902123505 | 76 | 238 | 0.0 | 0.0 | 0.00 | 0.00 | 0.00 | 81 | 1014.8 |
| 20260902123004 | 76 | 238 | 0.0 | 0.0 | 0.00 | 0.00 | 0.00 | 81 | 1014.6 |
| 20260902122503 | 76 | 238 | 0.0 | 0.0 | 0.00 | 0.00 | 0.00 | 81 | 1014.7 |
| 20260902122004 | 76 | 238 | 0.0 | 0.0 | 0.00 | 0.00 | 0.00 | 81 | 1014.6 |
| 20260902121503 | 76 | 238 | 0.0 | 0.0 | 0.00 | 0.00 | 0.00 | 81 | 1014.7 |
| 20260902121004 | 76 | 238 | 0.0 | 0.0 | 0.00 | 0.00 | 0.00 | 81 | 1014.7 |
| 20260902120503 | 76 | 238 | 0.0 | 0.0 | 0.00 | 0.00 | 0.00 | 81 | 1014.7 |
| 20260902120006 | 76 | 238 | 0.0 | 0.0 | 0.00 | 0.00 | 0.00 | 81 | 1014.7 |
| 20260902115503 | 76 | 238 | 0.0 | 0.0 | 0.00 | 0.00 | 0.00 | 81 | 1014.6 |
| 20260902115004 | 76 | 238 | 0.0 | 0.0 | 0.00 | 0.00 | 0.00 | 81 | 1014.6 |
| 20260902114004 | 76 | 238 | 0.0 | 0.0 | 0.00 | 0.00 | 0.00 | 80 | 1014.5 |
| 20260902113503 | 76 | 238 | 0.0 | 0.0 | 0.00 | 0.00 | 0.00 | 80 | 1014.4 |
| 20260902113004 | 76 | 238 | 0.0 | 0.0 | 0.00 | 0.00 | 0.00 | 80 | 1014.4 |
| 20260902112004 | 76 | 238 | 0.0 | 0.0 | 0.00 | 0.00 | 0.00 | 80 | 1014.6 |
| 20260902111503 | 76 | 238 | 0.0 | 0.0 | 0.00 | 0.00 | 0.00 | 80 | 1014.6 |
| 20260902110008 | 76 | 238 | 0.0 | 0.0 | 0.00 | 0.00 | 0.00 | 80 | 1014.6 |
| 20260902105504 | 76 | 238 | 0.0 | 0.0 | 0.00 | 0.00 | 0.00 | 81 | 1014.6 |
| 20260902105003 | 76 | 238 | 0.0 | 0.0 | 0.00 | 0.00 | 0.00 | 81 | 1014.6 |
| 20260902104504 | 76 | 238 | 0.0 | 0.0 | 0.00 | 0.00 | 0.00 | 81 | 1014.6 |
| 20260902104004 | 76 | 238 | 0.0 | 0.0 | 0.00 | 0.00 | 0.00 | 81 | 1014.6 |
| 20260902103503 | 76 | 238 | 0.0 | 0.0 | 0.00 | 0.00 | 0.00 | 81 | 1014.6 |
| 20260902103004 | 76 | 238 | 0.0 | 0.0 | 0.00 | 0.00 | 0.00 | 81 | 1014.6 |
| 20260902102503 | 76 | 238 | 0.0 | 0.0 | 0.00 | 0.00 | 0.00 | 81 | 1014.6 |
| 20260902102008 | 76 | 238 | 0.0 | 0.0 | 0.00 | 0.00 | 0.00 | 81 | 1014.6 |
| 20260902101503 | 76 | 238 | 0.0 | 0.0 | 0.00 | 0.00 | 0.00 | 81 | 1014.6 |
| 20260902101004 | 76 | 238 | 0.0 | 0.0 | 0.00 | 0.00 | 0.00 | 81 | 1014.5 |
| 20260902100006 | 76 | 238 | 0.0 | 0.0 | 0.00 | 0.00 | 0.00 | 80 | 1014.6 |
| 20260902095505 | 76 | 238 | 0.0 | 0.0 | 0.00 | 0.00 | 0.00 | 80 | 1014.6 |
| 20260902095004 | 76 | 238 | 0.0 | 0.0 | 0.00 | 0.00 | 0.00 | 80 | 1014.5 |
| 20260902094503 | 77 | 238 | 0.0 | 0.0 | 0.00 | 0.00 | 0.00 | 80 | 1014.5 |
| 20260902094004 | 77 | 238 | 0.0 | 0.0 | 0.00 | 0.00 | 0.00 | 80 | 1014.5 |
| 20260902093504 | 77 | 238 | 0.0 | 0.0 | 0.00 | 0.00 | 0.00 | 80 | 1014.6 |
| 20260902093004 | 77 | 238 | 0.0 | 0.0 | 0.00 | 0.00 | 0.00 | 80 | 1014.5 |
| 20260902092503 | 77 | 238 | 0.0 | 0.0 | 0.00 | 0.00 | 0.00 | 80 | 1014.6 |
| 20260902092004 | 77 | 238 | 0.0 | 0.0 | 0.00 | 0.00 | 0.00 | 80 | 1014.5 |
| 20260902091503 | 77 | 238 | 0.0 | 0.0 | 0.00 | 0.00 | 0.00 | 80 | 1014.4 |
| 20260902091004 | 77 | 238 | 0.0 | 0.0 | 0.00 | 0.00 | 0.00 | 80 | 1014.3 |
| 20260902090503 | 77 | 238 | 0.0 | 0.0 | 0.00 | 0.00 | 0.00 | 80 | 1014.2 |
| 20260902090006 | 77 | 238 | 0.0 | 0.0 | 0.00 | 0.00 | 0.00 | 81 | 1014.3 |
| 20260902085503 | 77 | 238 | 0.0 | 0.0 | 0.00 | 0.00 | 0.00 | 81 | 1014.2 |
| 20260902085004 | 77 | 238 | 0.0 | 0.0 | 0.00 | 0.00 | 0.00 | 81 | 1014.3 |
| 20260902084004 | 77 | 238 | 0.0 | 0.0 | 0.00 | 0.00 | 0.00 | 81 | 1014.3 |
| 20260902083504 | 77 | 238 | 0.0 | 0.0 | 0.00 | 0.00 | 0.00 | 81 | 1014.4 |
| 20260902083004 | 77 | 238 | 0.0 | 0.0 | 0.00 | 0.00 | 0.00 | 81 | 1014.3 |
| 20260902082503 | 77 | 238 | 0.0 | 0.0 | 0.00 | 0.00 | 0.00 | 81 | 1014.3 |
| 20260902082004 | 77 | 238 | 0.0 | 0.0 | 0.00 | 0.00 | 0.00 | 81 | 1014.3 |
| 20260902081504 | 77 | 238 | 0.0 | 0.0 | 0.00 | 0.00 | 0.00 | 81 | 1014.2 |
| 20260902081004 | 77 | 238 | 0.0 | 0.0 | 0.00 | 0.00 | 0.00 | 81 | 1014.3 |
| 20260902080503 | 77 | 238 | 0.0 | 0.0 | 0.00 | 0.00 | 0.00 | 80 | 1014.4 |
| 20260902075004 | 77 | 238 | 0.0 | 0.0 | 0.00 | 0.00 | 0.00 | 80 | 1014.2 |
| 20260902074503 | 78 | 238 | 0.0 | 0.0 | 0.00 | 0.00 | 0.00 | 80 | 1014.3 |
| 20260902073504 | 78 | 238 | 0.0 | 0.0 | 0.00 | 0.00 | 0.00 | 80 | 1014.2 |
| 20260902073004 | 78 | 238 | 0.0 | 0.0 | 0.00 | 0.00 | 0.00 | 80 | 1014.2 |
| 20260902072503 | 78 | 238 | 0.0 | 0.0 | 0.00 | 0.00 | 0.00 | 80 | 1014.2 |
| 20260902072005 | 78 | 238 | 0.0 | 0.0 | 0.00 | 0.00 | 0.00 | 80 | 1014.3 |
| 20260902071503 | 78 | 238 | 0.0 | 0.0 | 0.00 | 0.00 | 0.00 | 79 | 1014.1 |
| 20260902071007 | 78 | 238 | 0.0 | 0.0 | 0.00 | 0.00 | 0.00 | 79 | 1014.0 |
| 20260902070502 | 79 | 238 | 0.0 | 0.0 | 0.00 | 0.00 | 0.00 | 79 | 1014.1 |
| 20260902070007 | 79 | 238 | 0.0 | 0.0 | 0.00 | 0.00 | 0.00 | 79 | 1014.1 |
| 20260902065003 | 79 | 238 | 0.0 | 0.0 | 0.00 | 0.00 | 0.00 | 79 | 1014.3 |
| 20260902064004 | 79 | 238 | 0.0 | 0.0 | 0.00 | 0.00 | 0.00 | 79 | 1014.3 |
| 20260902063503 | 79 | 238 | 0.0 | 0.0 | 0.00 | 0.00 | 0.00 | 79 | 1014.3 |
| 20260902063004 | 79 | 238 | 0.0 | 0.0 | 0.00 | 0.00 | 0.00 | 79 | 1014.4 |
| 20260902062503 | 79 | 238 | 0.0 | 0.0 | 0.00 | 0.00 | 0.00 | 79 | 1014.4 |
| 20260902062004 | 79 | 238 | 0.0 | 0.0 | 0.00 | 0.00 | 0.00 | 79 | 1014.3 |
| 20260902061503 | 79 | 238 | 0.0 | 0.0 | 0.00 | 0.00 | 0.00 | 79 | 1014.3 |
| 20260902060007 | 79 | 238 | 0.0 | 0.0 | 0.00 | 0.00 | 0.00 | 79 | 1014.2 |
| 20260902054504 | 79 | 238 | 0.0 | 0.0 | 0.00 | 0.00 | 0.00 | 79 | 1014.1 |
| 20260902054007 | 80 | 238 | 0.0 | 0.0 | 0.00 | 0.00 | 0.00 | 78 | 1014.1 |
| 20260902053506 | 80 | 238 | 0.0 | 1.0 | 0.00 | 0.00 | 0.00 | 78 | 1014.2 |
| 20260902053006 | 80 | 238 | 0.0 | 1.0 | 0.00 | 0.00 | 0.00 | 78 | 1014.3 |
| 20260902052503 | 80 | 238 | 0.0 | 0.0 | 0.00 | 0.00 | 0.00 | 77 | 1014.3 |
| 20260902052005 | 80 | 238 | 0.0 | 0.0 | 0.00 | 0.00 | 0.00 | 77 | 1014.3 |
| 20260902051008 | 80 | 238 | 0.0 | 0.0 | 0.00 | 0.00 | 0.00 | 77 | 1014.3 |
| 20260902050504 | 80 | 238 | 0.0 | 0.0 | 0.00 | 0.00 | 0.00 | 77 | 1014.4 |
| 20260902050008 | 81 | 238 | 0.0 | 0.0 | 0.00 | 0.00 | 0.00 | 77 | 1014.3 |
| 20260902045504 | 81 | 238 | 0.0 | 0.0 | 0.00 | 0.00 | 0.00 | 77 | 1014.3 |
| 20260902044005 | 81 | 237 | 0.0 | 0.0 | 0.00 | 0.00 | 0.00 | 76 | 1014.3 |
| 20260902043504 | 81 | 237 | 0.0 | 0.0 | 0.00 | 0.00 | 0.00 | 76 | 1014.3 |
| 20260902043005 | 81 | 237 | 0.0 | 1.0 | 0.00 | 0.00 | 0.00 | 76 | 1014.3 |
| 20260902042504 | 81 | 237 | 0.0 | 1.0 | 0.00 | 0.00 | 0.00 | 76 | 1014.3 |
| 20260902042006 | 81 | 237 | 0.0 | 1.0 | 0.00 | 0.00 | 0.00 | 76 | 1014.3 |
| 20260902041503 | 81 | 267 | 0.0 | 0.0 | 0.00 | 0.00 | 0.00 | 76 | 1014.3 |
| 20260902040504 | 82 | 267 | 0.0 | 0.0 | 0.00 | 0.00 | 0.00 | 75 | 1014.3 |
| 20260902040007 | 82 | 267 | 0.0 | 0.0 | 0.00 | 0.00 | 0.00 | 74 | 1014.3 |
| 20260902035504 | 82 | 267 | 0.0 | 0.0 | 0.00 | 0.00 | 0.00 | 74 | 1014.3 |
| 20260902035006 | 82 | 267 | 0.0 | 1.0 | 0.00 | 0.00 | 0.00 | 74 | 1014.4 |
| 20260902034504 | 82 | 267 | 0.0 | 1.0 | 0.00 | 0.00 | 0.00 | 74 | 1014.5 |
| 20260902034005 | 82 | 267 | 0.0 | 2.0 | 0.00 | 0.00 | 0.00 | 73 | 1014.5 |
| 20260902033504 | 83 | 267 | 0.0 | 2.0 | 0.00 | 0.00 | 0.00 | 73 | 1014.5 |
| 20260902033005 | 83 | 247 | 0.0 | 1.0 | 0.00 | 0.00 | 0.00 | 73 | 1014.5 |
| 20260902032504 | 83 | 249 | 0.0 | 0.0 | 0.00 | 0.00 | 0.00 | 73 | 1014.5 |
| 20260902032009 | 83 | 249 | 0.0 | 0.0 | 0.00 | 0.00 | 0.00 | 73 | 1014.5 |
| 20260902031507 | 83 | 249 | 0.0 | 1.0 | 0.00 | 0.00 | 0.00 | 72 | 1014.5 |
| 20260902031007 | 83 | 249 | 0.0 | 4.0 | 0.00 | 0.00 | 0.00 | 72 | 1014.5 |
| 20260902030504 | 83 | 264 | 0.0 | 4.0 | 0.00 | 0.00 | 0.00 | 72 | 1014.4 |
| 20260902030009 | 83 | 308 | 0.0 | 1.0 | 0.00 | 0.00 | 0.00 | 72 | 1014.4 |
| 20260902025504 | 83 | 200 | 0.0 | 1.0 | 0.00 | 0.00 | 0.00 | 72 | 1014.4 |
| 20260902024006 | 84 | 251 | 0.0 | 3.0 | 0.00 | 0.00 | 0.00 | 72 | 1014.4 |
| 20260902023504 | 84 | 250 | 0.0 | 0.0 | 0.00 | 0.00 | 0.00 | 72 | 1014.4 |
| 20260902023006 | 84 | 250 | 0.0 | 0.0 | 0.00 | 0.00 | 0.00 | 71 | 1014.4 |
| 20260902022504 | 84 | 250 | 0.0 | 2.0 | 0.00 | 0.00 | 0.00 | 71 | 1014.4 |
| 20260902021004 | 84 | 252 | 0.0 | 0.0 | 0.00 | 0.00 | 0.00 | 70 | 1014.3 |
| 20260902020503 | 85 | 252 | 0.0 | 1.0 | 0.00 | 0.00 | 0.00 | 69 | 1014.2 |
| 20260902015504 | 85 | 252 | 0.0 | 3.0 | 0.00 | 0.00 | 0.00 | 69 | 1014.2 |
| 20260902015004 | 85 | 269 | 0.0 | 2.0 | 0.00 | 0.00 | 0.00 | 69 | 1014.2 |
| 20260902014004 | 85 | 269 | 0.0 | 0.0 | 0.00 | 0.00 | 0.00 | 69 | 1014.2 |
| 20260902013503 | 85 | 269 | 0.0 | 0.0 | 0.00 | 0.00 | 0.00 | 69 | 1013.9 |
| 20260902012503 | 86 | 269 | 0.0 | 1.0 | 0.00 | 0.00 | 0.00 | 69 | 1013.9 |
| 20260902012004 | 86 | 269 | 0.0 | 3.0 | 0.00 | 0.00 | 0.00 | 69 | 1013.8 |
| 20260902011503 | 86 | 267 | 0.0 | 3.0 | 0.00 | 0.00 | 0.00 | 68 | 1013.7 |
| 20260902011004 | 86 | 271 | 0.0 | 2.0 | 0.00 | 0.00 | 0.00 | 68 | 1013.7 |
| 20260902010503 | 86 | 271 | 0.0 | 1.0 | 0.00 | 0.00 | 0.00 | 68 | 1013.6 |
| 20260902010007 | 86 | 271 | 0.0 | 2.0 | 0.00 | 0.00 | 0.00 | 68 | 1013.6 |
| 20260902005503 | 87 | 271 | 0.0 | 2.0 | 0.00 | 0.00 | 0.00 | 68 | 1013.5 |
| 20260902005004 | 87 | 289 | 0.0 | 1.0 | 0.00 | 0.00 | 0.00 | 68 | 1013.4 |
| 20260902004005 | 87 | 289 | 0.0 | 1.0 | 0.00 | 0.00 | 0.00 | 67 | 1013.3 |
| 20260902003503 | 87 | 288 | 0.0 | 2.0 | 0.00 | 0.00 | 0.00 | 68 | 1013.3 |
| 20260902003005 | 88 | 288 | 0.0 | 1.0 | 0.00 | 0.00 | 0.00 | 67 | 1013.4 |
| 20260902002503 | 88 | 290 | 0.0 | 1.0 | 0.00 | 0.00 | 0.00 | 67 | 1013.3 |
| 20260902002004 | 88 | 238 | 0.0 | 1.0 | 0.00 | 0.00 | 0.00 | 67 | 1013.4 |
| 20260902001503 | 88 | 238 | 0.0 | 1.0 | 0.00 | 0.00 | 0.00 | 66 | 1013.4 |
| 20260902001004 | 88 | 238 | 0.0 | 1.0 | 0.00 | 0.00 | 0.00 | 66 | 1013.5 |
| 20260902000503 | 88 | 238 | 0.0 | 1.0 | 0.00 | 0.00 | 0.00 | 67 | 1013.5 |
| 20260901235504 | 89 | 256 | 0.0 | 2.0 | 0.00 | 0.01 | 0.00 | 67 | 1013.6 |
| 20260901235006 | 89 | 256 | 0.0 | 0.0 | 0.00 | 0.01 | 0.00 | 67 | 1013.7 |
| 20260901234504 | 89 | 255 | 0.0 | 2.0 | 0.00 | 0.01 | 0.00 | 66 | 1013.7 |
| 20260901234006 | 89 | 255 | 0.0 | 2.0 | 0.00 | 0.01 | 0.00 | 66 | 1013.6 |
| 20260901233005 | 90 | 257 | 0.0 | 3.0 | 0.00 | 0.01 | 0.00 | 66 | 1013.7 |
| 20260901232504 | 90 | 251 | 0.0 | 2.0 | 0.00 | 0.01 | 0.00 | 66 | 1013.8 |
| 20260901232005 | 90 | 254 | 0.0 | 2.0 | 0.00 | 0.01 | 0.00 | 66 | 1013.7 |
| 20260901231504 | 90 | 253 | 0.0 | 2.0 | 0.00 | 0.01 | 0.00 | 66 | 1013.8 |
| 20260901231004 | 90 | 263 | 0.0 | 2.0 | 0.00 | 0.01 | 0.00 | 66 | 1013.7 |
| 20260901230504 | 90 | 263 | 0.0 | 2.0 | 0.00 | 0.01 | 0.00 | 67 | 1013.8 |
| 20260901230007 | 90 | 234 | 0.0 | 1.0 | 0.00 | 0.01 | 0.00 | 66 | 1013.8 |
| 20260901224504 | 91 | 234 | 0.0 | 1.0 | 0.00 | 0.01 | 0.00 | 66 | 1013.8 |
| 20260901224005 | 91 | 252 | 0.0 | 1.0 | 0.00 | 0.01 | 0.00 | 66 | 1013.9 |
| 20260901223503 | 91 | 252 | 0.0 | 1.0 | 0.00 | 0.01 | 0.00 | 66 | 1013.9 |
| 20260901223005 | 91 | 252 | 0.0 | 3.0 | 0.00 | 0.01 | 0.00 | 65 | 1013.9 |
| 20260901222503 | 91 | 252 | 0.0 | 3.0 | 0.00 | 0.01 | 0.00 | 64 | 1013.9 |
| 20260901221503 | 91 | 217 | 0.0 | 4.0 | 0.00 | 0.01 | 0.00 | 64 | 1013.9 |
| 20260901220504 | 92 | 244 | 0.0 | 2.0 | 0.00 | 0.01 | 0.00 | 63 | 1013.9 |
| 20260901220005 | 92 | 251 | 0.0 | 4.0 | 0.00 | 0.01 | 0.00 | 62 | 1013.9 |
| 20260901215503 | 92 | 244 | 0.0 | 1.0 | 0.00 | 0.01 | 0.00 | 63 | 1013.9 |
| 20260901215004 | 93 | 244 | 0.0 | 1.0 | 0.00 | 0.01 | 0.00 | 63 | 1013.8 |
| 20260901214503 | 93 | 244 | 0.0 | 1.0 | 0.00 | 0.01 | 0.00 | 63 | 1013.8 |
| 20260901213503 | 93 | 263 | 0.0 | 3.0 | 0.00 | 0.01 | 0.00 | 62 | 1013.7 |
| 20260901213005 | 93 | 250 | 0.0 | 3.0 | 0.00 | 0.01 | 0.00 | 61 | 1013.7 |
| 20260901212503 | 93 | 281 | 0.0 | 5.0 | 0.00 | 0.01 | 0.00 | 62 | 1013.8 |
| 20260901212004 | 93 | 281 | 0.0 | 5.0 | 0.00 | 0.01 | 0.00 | 61 | 1013.8 |
| 20260901211503 | 93 | 244 | 0.0 | 3.0 | 0.00 | 0.01 | 0.00 | 61 | 1013.8 |
| 20260901211004 | 94 | 222 | 1.0 | 6.0 | 0.00 | 0.01 | 0.00 | 59 | 1013.8 |
| 20260901210503 | 94 | 244 | 0.0 | 6.0 | 0.00 | 0.01 | 0.00 | 60 | 1013.8 |
| 20260901210008 | 94 | 208 | 0.0 | 2.0 | 0.00 | 0.01 | 0.00 | 61 | 1013.7 |
| 20260901205505 | 93 | 204 | 0.0 | 3.0 | 0.00 | 0.01 | 0.00 | 61 | 1013.7 |
| 20260901205006 | 94 | 242 | 0.0 | 3.0 | 0.00 | 0.01 | 0.00 | 60 | 1013.7 |
| 20260901204504 | 94 | 238 | 0.0 | 3.0 | 0.00 | 0.01 | 0.00 | 59 | 1013.8 |
| 20260901204005 | 94 | 234 | 0.0 | 3.0 | 0.00 | 0.01 | 0.00 | 58 | 1013.9 |
| 20260901203006 | 94 | 236 | 0.0 | 3.0 | 0.00 | 0.01 | 0.00 | 58 | 1013.9 |
| 20260901202504 | 94 | 234 | 0.0 | 3.0 | 0.00 | 0.01 | 0.00 | 57 | 1013.9 |
| 20260901201504 | 95 | 223 | 1.0 | 7.0 | 0.00 | 0.01 | 0.00 | 58 | 1014.0 |
| 20260901200506 | 95 | 213 | 0.0 | 4.0 | 0.00 | 0.01 | 0.00 | 56 | 1014.0 |
| 20260901200013 | 95 | 250 | 0.0 | 3.0 | 0.00 | 0.01 | 0.00 | 61 | 1014.0 |
| 20260901195506 | 94 | 266 | 1.0 | 6.0 | 0.00 | 0.01 | 0.00 | 59 | 1014.1 |
| 20260901194504 | 94 | 254 | 1.0 | 3.0 | 0.00 | 0.01 | 0.00 | 58 | 1014.2 |
| 20260901194004 | 94 | 247 | 0.0 | 3.0 | 0.00 | 0.01 | 0.00 | 61 | 1014.2 |
| 20260901193505 | 93 | 298 | 1.0 | 4.0 | 0.00 | 0.01 | 0.00 | 61 | 1014.2 |
| 20260901192503 | 93 | 281 | 1.0 | 5.0 | 0.00 | 0.01 | 0.00 | 65 | 1014.2 |
| 20260901192007 | 93 | 259 | 0.0 | 3.0 | 0.00 | 0.01 | 0.00 | 65 | 1014.3 |
| 20260901191004 | 92 | 261 | 1.0 | 4.0 | 0.00 | 0.01 | 0.00 | 63 | 1014.3 |
| 20260901190503 | 92 | 242 | 1.0 | 4.0 | 0.00 | 0.01 | 0.00 | 64 | 1014.3 |
| 20260901190008 | 92 | 247 | 0.0 | 3.0 | 0.00 | 0.01 | 0.00 | 61 | 1014.4 |
| 20260901185007 | 92 | 283 | 1.0 | 7.0 | 0.00 | 0.01 | 0.00 | 63 | 1014.4 |
| 20260901184504 | 92 | 281 | 0.0 | 4.0 | 0.00 | 0.01 | 0.00 | 65 | 1014.5 |
| 20260901184004 | 92 | 270 | 1.0 | 7.0 | 0.00 | 0.01 | 0.00 | 63 | 1014.5 |
| 20260901183503 | 92 | 190 | 1.0 | 7.0 | 0.00 | 0.01 | 0.00 | 61 | 1014.6 |
| 20260901182503 | 92 | 285 | 1.0 | 5.0 | 0.00 | 0.01 | 0.00 | 61 | 1014.6 |
| 20260901181506 | 91 | 265 | 0.0 | 4.0 | 0.00 | 0.01 | 0.00 | 62 | 1014.6 |
| 20260901181004 | 91 | 258 | 1.0 | 4.0 | 0.00 | 0.01 | 0.00 | 63 | 1014.5 |
| 20260901180503 | 91 | 261 | 1.0 | 4.0 | 0.00 | 0.01 | 0.00 | 63 | 1014.6 |
| 20260901180007 | 91 | 265 | 1.0 | 4.0 | 0.00 | 0.01 | 0.00 | 62 | 1014.7 |
| 20260901175503 | 91 | 261 | 1.0 | 5.0 | 0.00 | 0.01 | 0.00 | 64 | 1014.7 |
| 20260901175008 | 91 | 252 | 1.0 | 5.0 | 0.00 | 0.01 | 0.00 | 64 | 1014.6 |
| 20260901174505 | 90 | 277 | 1.0 | 3.0 | 0.00 | 0.01 | 0.00 | 65 | 1014.7 |
| 20260901174006 | 90 | 249 | 2.0 | 7.0 | 0.00 | 0.01 | 0.00 | 66 | 1014.7 |
| 20260901173505 | 90 | 268 | 2.0 | 7.0 | 0.00 | 0.01 | 0.00 | 68 | 1014.6 |
| 20260901173004 | 90 | 288 | 1.0 | 5.0 | 0.00 | 0.01 | 0.00 | 69 | 1014.8 |
| 20260901172503 | 90 | 275 | 1.0 | 7.0 | 0.00 | 0.01 | 0.00 | 66 | 1014.7 |
| 20260901172004 | 90 | 229 | 1.0 | 7.0 | 0.00 | 0.01 | 0.00 | 69 | 1014.8 |
| 20260901171504 | 90 | 281 | 1.0 | 6.0 | 0.00 | 0.01 | 0.00 | 69 | 1014.8 |
| 20260901171007 | 89 | 288 | 0.0 | 6.0 | 0.00 | 0.01 | 0.00 | 70 | 1014.8 |
| 20260901170506 | 89 | 235 | 0.0 | 3.0 | 0.00 | 0.01 | 0.00 | 68 | 1014.9 |
| 20260901170007 | 89 | 253 | 0.0 | 3.0 | 0.00 | 0.01 | 0.00 | 69 | 1014.8 |
| 20260901165503 | 89 | 228 | 0.0 | 3.0 | 0.00 | 0.01 | 0.00 | 70 | 1014.9 |